Arcadia, Nebraska
Current Conditions -  °F | °C
As of 8:53 PM on Sunday 23 Nov 2014 (Local Time) from KODX Reporting Station
Broken Clouds Broken Clouds  
Wind Chill: 25°   Ceiling: 4700
Heat Index: 36°   Visibility: 10mi
Dew Point: 25°   Wind: 22mph
Humidity: 64%   Direction: 330°NNW
Pressure: 29.65"   Gusts: NA
Location:  41.42°N, 99.13°W
Report Text: KODX 240253Z AUTO 33019KT 10SM FEW039 BKN047 02/M04 A2965 RMK AO2 PK WND 33026/0228 SLP054 T00221039 51014
Loading
Personal Weather Stations






























Interactive Weather Map New forecast layout! Learn more

10-Day Weather Forecast

Advertisements
Track Severe Weather on mobile